Aviation Digital Data Service (ADDS)

Output produced by METARs form (1342 UTC 03 December 2016)
found at http://aviationweather.gov/adds/metars/
 
KRME 031136Z 0312/0412 30009KT P6SM BKN035 
     TEMPO 0312/0314 BKN025 
     FM031400 30009KT P6SM BKN025